Adamantina, Brazil
Current Conditions -  °F | °C
As of 4:16 AM on Thursday 29 Jan 2015 (Local Time) from SBDN Reporting Station
Moderate Rain Moderate Rain  
Wind Chill: 73°   Ceiling: 500
Heat Index: 73°   Visibility: 1.2mi
Dew Point: 72°   Wind: 10mph
Humidity: 94%   Direction: 30°NNE
Pressure: 29.94"   Gusts: NA
Location:  21.68°S, 51.08°W
Report Text: SBDN 290616Z 03009KT 2000 RA BKN005 BKN012 23/22 Q1014
Loading
Personal Weather Stations






























Interactive Weather Map New forecast layout! Learn more

10-Day Weather Forecast

Advertisements
Track Severe Weather on mobile